sensor_id;sensor_type;location;lat;lon;timestamp;pressure;altitude;pressure_sealevel;temperature
8227;BMP180;4154;48.810;9.012;2024-02-23T00:00:42;95077.00;;;6.00
8227;BMP180;4154;48.810;9.012;2024-02-23T00:03:07;95084.00;;;6.00
8227;BMP180;4154;48.810;9.012;2024-02-23T00:05:34;95080.00;;;6.00
8227;BMP180;4154;48.810;9.012;2024-02-23T00:08:00;95085.00;;;5.90
8227;BMP180;4154;48.810;9.012;2024-02-23T00:10:25;95082.00;;;6.00
8227;BMP180;4154;48.810;9.012;2024-02-23T00:12:51;95082.00;;;6.00
8227;BMP180;4154;48.810;9.012;2024-02-23T00:15:17;95087.00;;;5.90
8227;BMP180;4154;48.810;9.012;2024-02-23T00:17:42;95080.00;;;5.90
8227;BMP180;4154;48.810;9.012;2024-02-23T00:20:10;95083.00;;;5.90
8227;BMP180;4154;48.810;9.012;2024-02-23T00:22:40;95091.00;;;5.80
8227;BMP180;4154;48.810;9.012;2024-02-23T00:25:06;95097.00;;;5.80
8227;BMP180;4154;48.810;9.012;2024-02-23T00:27:32;95109.00;;;5.80
8227;BMP180;4154;48.810;9.012;2024-02-23T00:29:58;95100.00;;;5.80
8227;BMP180;4154;48.810;9.012;2024-02-23T00:32:23;95119.00;;;5.90
8227;BMP180;4154;48.810;9.012;2024-02-23T00:34:49;95115.00;;;5.90
8227;BMP180;4154;48.810;9.012;2024-02-23T00:37:15;95120.00;;;5.80
8227;BMP180;4154;48.810;9.012;2024-02-23T00:39:40;95127.00;;;5.80
8227;BMP180;4154;48.810;9.012;2024-02-23T00:42:06;95121.00;;;5.90
8227;BMP180;4154;48.810;9.012;2024-02-23T00:44:33;95127.00;;;5.90
8227;BMP180;4154;48.810;9.012;2024-02-23T00:46:58;95135.00;;;5.80
8227;BMP180;4154;48.810;9.012;2024-02-23T00:49:27;95125.00;;;5.70
8227;BMP180;4154;48.810;9.012;2024-02-23T00:51:54;95133.00;;;5.70
8227;BMP180;4154;48.810;9.012;2024-02-23T00:54:21;95126.00;;;5.70
8227;BMP180;4154;48.810;9.012;2024-02-23T00:56:46;95123.00;;;5.70
8227;BMP180;4154;48.810;9.012;2024-02-23T00:59:12;95145.00;;;5.70
8227;BMP180;4154;48.810;9.012;2024-02-23T01:01:38;95140.00;;;5.80
8227;BMP180;4154;48.810;9.012;2024-02-23T01:04:04;95145.00;;;5.80
8227;BMP180;4154;48.810;9.012;2024-02-23T01:06:29;95138.00;;;5.80
8227;BMP180;4154;48.810;9.012;2024-02-23T01:08:55;95137.00;;;5.90
8227;BMP180;4154;48.810;9.012;2024-02-23T01:11:21;95145.00;;;5.90
8227;BMP180;4154;48.810;9.012;2024-02-23T01:13:46;95148.00;;;5.90
8227;BMP180;4154;48.810;9.012;2024-02-23T01:16:12;95148.00;;;6.00
8227;BMP180;4154;48.810;9.012;2024-02-23T01:18:38;95138.00;;;6.00
8227;BMP180;4154;48.810;9.012;2024-02-23T01:21:03;95127.00;;;6.00
8227;BMP180;4154;48.810;9.012;2024-02-23T01:23:29;95136.00;;;6.00
8227;BMP180;4154;48.810;9.012;2024-02-23T01:25:54;95146.00;;;5.90
8227;BMP180;4154;48.810;9.012;2024-02-23T01:28:20;95143.00;;;5.90
8227;BMP180;4154;48.810;9.012;2024-02-23T01:30:46;95140.00;;;6.00
8227;BMP180;4154;48.810;9.012;2024-02-23T01:33:11;95151.00;;;5.90
8227;BMP180;4154;48.810;9.012;2024-02-23T01:35:37;95150.00;;;6.00
8227;BMP180;4154;48.810;9.012;2024-02-23T01:38:03;95153.00;;;6.00
8227;BMP180;4154;48.810;9.012;2024-02-23T01:40:28;95166.00;;;6.00
8227;BMP180;4154;48.810;9.012;2024-02-23T01:43:04;95170.00;;;6.00
8227;BMP180;4154;48.810;9.012;2024-02-23T01:45:31;95166.00;;;6.00
8227;BMP180;4154;48.810;9.012;2024-02-23T01:48:00;95165.00;;;6.00
8227;BMP180;4154;48.810;9.012;2024-02-23T01:50:27;95172.00;;;6.00
8227;BMP180;4154;48.810;9.012;2024-02-23T01:52:54;95181.00;;;6.00
8227;BMP180;4154;48.810;9.012;2024-02-23T01:55:21;95175.00;;;6.00
8227;BMP180;4154;48.810;9.012;2024-02-23T01:57:48;95171.00;;;6.00
8227;BMP180;4154;48.810;9.012;2024-02-23T02:00:18;95181.00;;;6.00
8227;BMP180;4154;48.810;9.012;2024-02-23T02:02:44;95188.00;;;6.00
8227;BMP180;4154;48.810;9.012;2024-02-23T02:05:10;95180.00;;;6.10
8227;BMP180;4154;48.810;9.012;2024-02-23T02:07:37;95184.00;;;6.10
8227;BMP180;4154;48.810;9.012;2024-02-23T02:10:06;95185.00;;;6.00
8227;BMP180;4154;48.810;9.012;2024-02-23T02:12:33;95184.00;;;6.10
8227;BMP180;4154;48.810;9.012;2024-02-23T02:14:59;95197.00;;;5.90
8227;BMP180;4154;48.810;9.012;2024-02-23T02:17:27;95192.00;;;5.90
8227;BMP180;4154;48.810;9.012;2024-02-23T02:19:53;95209.00;;;5.90
8227;BMP180;4154;48.810;9.012;2024-02-23T02:22:20;95198.00;;;5.90
8227;BMP180;4154;48.810;9.012;2024-02-23T02:24:46;95215.00;;;5.90
8227;BMP180;4154;48.810;9.012;2024-02-23T02:27:14;95215.00;;;5.80
8227;BMP180;4154;48.810;9.012;2024-02-23T02:29:40;95202.00;;;5.70
8227;BMP180;4154;48.810;9.012;2024-02-23T02:32:06;95209.00;;;5.70
8227;BMP180;4154;48.810;9.012;2024-02-23T02:34:32;95208.00;;;5.60
8227;BMP180;4154;48.810;9.012;2024-02-23T02:36:57;95189.00;;;5.70
8227;BMP180;4154;48.810;9.012;2024-02-23T02:39:23;95185.00;;;5.60
8227;BMP180;4154;48.810;9.012;2024-02-23T02:41:49;95182.00;;;5.50
8227;BMP180;4154;48.810;9.012;2024-02-23T02:44:15;95176.00;;;5.60
8227;BMP180;4154;48.810;9.012;2024-02-23T02:46:41;95175.00;;;5.60
8227;BMP180;4154;48.810;9.012;2024-02-23T02:49:08;95184.00;;;5.60
8227;BMP180;4154;48.810;9.012;2024-02-23T02:51:33;95175.00;;;5.70
8227;BMP180;4154;48.810;9.012;2024-02-23T02:53:59;95173.00;;;5.70
8227;BMP180;4154;48.810;9.012;2024-02-23T02:56:24;95179.00;;;5.70
8227;BMP180;4154;48.810;9.012;2024-02-23T02:58:50;95181.00;;;5.70
8227;BMP180;4154;48.810;9.012;2024-02-23T03:01:16;95178.00;;;5.70
8227;BMP180;4154;48.810;9.012;2024-02-23T03:03:41;95171.00;;;5.70
8227;BMP180;4154;48.810;9.012;2024-02-23T03:06:07;95167.00;;;5.70
8227;BMP180;4154;48.810;9.012;2024-02-23T03:08:33;95161.00;;;5.70
8227;BMP180;4154;48.810;9.012;2024-02-23T03:10:59;95147.00;;;5.70
8227;BMP180;4154;48.810;9.012;2024-02-23T03:13:24;95148.00;;;5.70
8227;BMP180;4154;48.810;9.012;2024-02-23T03:15:50;95172.00;;;5.60
8227;BMP180;4154;48.810;9.012;2024-02-23T03:18:16;95170.00;;;5.40
8227;BMP180;4154;48.810;9.012;2024-02-23T03:20:42;95157.00;;;5.40
8227;BMP180;4154;48.810;9.012;2024-02-23T03:23:07;95149.00;;;5.30
8227;BMP180;4154;48.810;9.012;2024-02-23T03:25:33;95156.00;;;5.20
8227;BMP180;4154;48.810;9.012;2024-02-23T03:27:59;95170.00;;;5.30
8227;BMP180;4154;48.810;9.012;2024-02-23T03:30:25;95158.00;;;5.20
8227;BMP180;4154;48.810;9.012;2024-02-23T03:32:50;95171.00;;;5.10
8227;BMP180;4154;48.810;9.012;2024-02-23T03:35:16;95162.00;;;5.20
8227;BMP180;4154;48.810;9.012;2024-02-23T03:37:42;95147.00;;;5.10
8227;BMP180;4154;48.810;9.012;2024-02-23T03:40:08;95140.00;;;5.00
8227;BMP180;4154;48.810;9.012;2024-02-23T03:42:36;95148.00;;;5.00
8227;BMP180;4154;48.810;9.012;2024-02-23T03:45:02;95159.00;;;5.00
8227;BMP180;4154;48.810;9.012;2024-02-23T03:47:28;95174.00;;;5.00
8227;BMP180;4154;48.810;9.012;2024-02-23T03:49:54;95161.00;;;5.00
8227;BMP180;4154;48.810;9.012;2024-02-23T03:52:20;95166.00;;;5.00
8227;BMP180;4154;48.810;9.012;2024-02-23T03:54:45;95169.00;;;5.00
8227;BMP180;4154;48.810;9.012;2024-02-23T03:57:11;95174.00;;;5.00
8227;BMP180;4154;48.810;9.012;2024-02-23T03:59:37;95183.00;;;5.10
8227;BMP180;4154;48.810;9.012;2024-02-23T04:02:04;95183.00;;;5.10
8227;BMP180;4154;48.810;9.012;2024-02-23T04:04:29;95178.00;;;5.00
8227;BMP180;4154;48.810;9.012;2024-02-23T04:06:55;95169.00;;;5.10
8227;BMP180;4154;48.810;9.012;2024-02-23T04:09:21;95169.00;;;5.10
8227;BMP180;4154;48.810;9.012;2024-02-23T04:11:49;95166.00;;;5.10
8227;BMP180;4154;48.810;9.012;2024-02-23T04:14:15;95175.00;;;5.10
8227;BMP180;4154;48.810;9.012;2024-02-23T04:16:40;95182.00;;;5.10
8227;BMP180;4154;48.810;9.012;2024-02-23T04:19:06;95168.00;;;5.10
8227;BMP180;4154;48.810;9.012;2024-02-23T04:21:32;95171.00;;;5.20
8227;BMP180;4154;48.810;9.012;2024-02-23T04:23:58;95175.00;;;5.20
8227;BMP180;4154;48.810;9.012;2024-02-23T04:26:24;95183.00;;;5.20
8227;BMP180;4154;48.810;9.012;2024-02-23T04:28:49;95186.00;;;5.20
8227;BMP180;4154;48.810;9.012;2024-02-23T04:31:15;95180.00;;;5.10
8227;BMP180;4154;48.810;9.012;2024-02-23T04:33:41;95182.00;;;5.10
8227;BMP180;4154;48.810;9.012;2024-02-23T04:36:07;95175.00;;;5.20
8227;BMP180;4154;48.810;9.012;2024-02-23T04:38:33;95168.00;;;5.10
8227;BMP180;4154;48.810;9.012;2024-02-23T04:41:03;95167.00;;;5.10
8227;BMP180;4154;48.810;9.012;2024-02-23T04:43:30;95176.00;;;5.10
8227;BMP180;4154;48.810;9.012;2024-02-23T04:45:55;95197.00;;;5.10
8227;BMP180;4154;48.810;9.012;2024-02-23T04:48:21;95177.00;;;5.10
8227;BMP180;4154;48.810;9.012;2024-02-23T04:50:46;95182.00;;;5.00
8227;BMP180;4154;48.810;9.012;2024-02-23T04:53:12;95183.00;;;5.00
8227;BMP180;4154;48.810;9.012;2024-02-23T04:55:38;95180.00;;;5.00
8227;BMP180;4154;48.810;9.012;2024-02-23T04:58:03;95178.00;;;5.10
8227;BMP180;4154;48.810;9.012;2024-02-23T05:00:29;95178.00;;;5.00
8227;BMP180;4154;48.810;9.012;2024-02-23T05:03:00;95168.00;;;5.10
8227;BMP180;4154;48.810;9.012;2024-02-23T05:05:31;95170.00;;;5.10
8227;BMP180;4154;48.810;9.012;2024-02-23T05:07:57;95172.00;;;5.10
8227;BMP180;4154;48.810;9.012;2024-02-23T05:10:23;95176.00;;;5.10
8227;BMP180;4154;48.810;9.012;2024-02-23T05:12:50;95166.00;;;5.10
8227;BMP180;4154;48.810;9.012;2024-02-23T05:15:15;95173.00;;;5.10
8227;BMP180;4154;48.810;9.012;2024-02-23T05:17:42;95180.00;;;5.00
8227;BMP180;4154;48.810;9.012;2024-02-23T05:20:08;95182.00;;;5.10
8227;BMP180;4154;48.810;9.012;2024-02-23T05:22:37;95181.00;;;5.00
8227;BMP180;4154;48.810;9.012;2024-02-23T05:25:03;95182.00;;;5.00
8227;BMP180;4154;48.810;9.012;2024-02-23T05:27:30;95190.00;;;5.00
8227;BMP180;4154;48.810;9.012;2024-02-23T05:29:56;95197.00;;;5.00
8227;BMP180;4154;48.810;9.012;2024-02-23T05:32:22;95204.00;;;4.90
8227;BMP180;4154;48.810;9.012;2024-02-23T05:34:48;95198.00;;;4.90
8227;BMP180;4154;48.810;9.012;2024-02-23T05:37:17;95205.00;;;4.90
8227;BMP180;4154;48.810;9.012;2024-02-23T05:39:43;95188.00;;;4.90
8227;BMP180;4154;48.810;9.012;2024-02-23T05:42:12;95196.00;;;4.90
8227;BMP180;4154;48.810;9.012;2024-02-23T05:44:37;95213.00;;;4.90
8227;BMP180;4154;48.810;9.012;2024-02-23T05:47:03;95190.00;;;4.90
8227;BMP180;4154;48.810;9.012;2024-02-23T05:49:30;95193.00;;;4.90
8227;BMP180;4154;48.810;9.012;2024-02-23T05:51:55;95201.00;;;4.90
8227;BMP180;4154;48.810;9.012;2024-02-23T05:54:21;95190.00;;;4.80
8227;BMP180;4154;48.810;9.012;2024-02-23T05:56:47;95198.00;;;4.90
8227;BMP180;4154;48.810;9.012;2024-02-23T05:59:13;95211.00;;;4.90
8227;BMP180;4154;48.810;9.012;2024-02-23T06:01:39;95198.00;;;4.80
8227;BMP180;4154;48.810;9.012;2024-02-23T06:04:05;95202.00;;;4.80
8227;BMP180;4154;48.810;9.012;2024-02-23T06:06:30;95222.00;;;4.80
8227;BMP180;4154;48.810;9.012;2024-02-23T06:08:56;95220.00;;;4.80
8227;BMP180;4154;48.810;9.012;2024-02-23T06:11:22;95218.00;;;4.80
8227;BMP180;4154;48.810;9.012;2024-02-23T06:13:48;95216.00;;;4.80
8227;BMP180;4154;48.810;9.012;2024-02-23T06:16:13;95228.00;;;4.80
8227;BMP180;4154;48.810;9.012;2024-02-23T06:18:39;95232.00;;;4.80
8227;BMP180;4154;48.810;9.012;2024-02-23T06:21:16;95231.00;;;4.70
8227;BMP180;4154;48.810;9.012;2024-02-23T06:23:43;95246.00;;;4.80
8227;BMP180;4154;48.810;9.012;2024-02-23T06:26:09;95241.00;;;4.70
8227;BMP180;4154;48.810;9.012;2024-02-23T06:28:35;95232.00;;;4.70
8227;BMP180;4154;48.810;9.012;2024-02-23T06:31:03;95239.00;;;4.70
8227;BMP180;4154;48.810;9.012;2024-02-23T06:33:30;95239.00;;;4.70
8227;BMP180;4154;48.810;9.012;2024-02-23T06:35:56;95261.00;;;4.70
8227;BMP180;4154;48.810;9.012;2024-02-23T06:38:22;95255.00;;;4.70
8227;BMP180;4154;48.810;9.012;2024-02-23T06:40:47;95254.00;;;4.60
8227;BMP180;4154;48.810;9.012;2024-02-23T06:43:13;95254.00;;;4.60
8227;BMP180;4154;48.810;9.012;2024-02-23T06:45:39;95248.00;;;4.70
8227;BMP180;4154;48.810;9.012;2024-02-23T06:48:05;95259.00;;;4.60
8227;BMP180;4154;48.810;9.012;2024-02-23T06:50:31;95255.00;;;4.60
8227;BMP180;4154;48.810;9.012;2024-02-23T06:52:56;95258.00;;;4.50
8227;BMP180;4154;48.810;9.012;2024-02-23T06:55:22;95257.00;;;4.50
8227;BMP180;4154;48.810;9.012;2024-02-23T06:57:48;95265.00;;;4.50
8227;BMP180;4154;48.810;9.012;2024-02-23T07:00:14;95256.00;;;4.50
8227;BMP180;4154;48.810;9.012;2024-02-23T07:02:41;95263.00;;;4.50
8227;BMP180;4154;48.810;9.012;2024-02-23T07:05:07;95253.00;;;4.60
8227;BMP180;4154;48.810;9.012;2024-02-23T07:07:34;95262.00;;;4.60
8227;BMP180;4154;48.810;9.012;2024-02-23T07:10:00;95262.00;;;4.60
8227;BMP180;4154;48.810;9.012;2024-02-23T07:12:26;95267.00;;;4.60
8227;BMP180;4154;48.810;9.012;2024-02-23T07:14:55;95269.00;;;4.60
8227;BMP180;4154;48.810;9.012;2024-02-23T07:17:20;95263.00;;;4.70
8227;BMP180;4154;48.810;9.012;2024-02-23T07:19:46;95275.00;;;4.70
8227;BMP180;4154;48.810;9.012;2024-02-23T07:22:13;95275.00;;;4.80
8227;BMP180;4154;48.810;9.012;2024-02-23T07:24:42;95277.00;;;4.80
8227;BMP180;4154;48.810;9.012;2024-02-23T07:27:08;95267.00;;;4.90
8227;BMP180;4154;48.810;9.012;2024-02-23T07:29:34;95270.00;;;4.90
8227;BMP180;4154;48.810;9.012;2024-02-23T07:31:59;95278.00;;;5.00
8227;BMP180;4154;48.810;9.012;2024-02-23T07:34:25;95276.00;;;5.00
8227;BMP180;4154;48.810;9.012;2024-02-23T07:36:54;95265.00;;;4.90
8227;BMP180;4154;48.810;9.012;2024-02-23T07:39:21;95270.00;;;5.00
8227;BMP180;4154;48.810;9.012;2024-02-23T07:41:47;95264.00;;;5.00
8227;BMP180;4154;48.810;9.012;2024-02-23T07:44:13;95256.00;;;5.00
8227;BMP180;4154;48.810;9.012;2024-02-23T07:46:38;95257.00;;;5.00
8227;BMP180;4154;48.810;9.012;2024-02-23T07:49:05;95262.00;;;5.00
8227;BMP180;4154;48.810;9.012;2024-02-23T07:51:32;95254.00;;;5.00
8227;BMP180;4154;48.810;9.012;2024-02-23T07:53:57;95255.00;;;5.00
8227;BMP180;4154;48.810;9.012;2024-02-23T07:56:23;95250.00;;;5.00
8227;BMP180;4154;48.810;9.012;2024-02-23T07:58:49;95265.00;;;5.00
8227;BMP180;4154;48.810;9.012;2024-02-23T08:01:14;95271.00;;;5.00
8227;BMP180;4154;48.810;9.012;2024-02-23T08:03:41;95275.00;;;5.00
8227;BMP180;4154;48.810;9.012;2024-02-23T08:06:06;95283.00;;;5.00
8227;BMP180;4154;48.810;9.012;2024-02-23T08:08:32;95286.00;;;5.00
8227;BMP180;4154;48.810;9.012;2024-02-23T08:11:01;95291.00;;;5.00
8227;BMP180;4154;48.810;9.012;2024-02-23T08:13:28;95293.00;;;5.00
8227;BMP180;4154;48.810;9.012;2024-02-23T08:15:53;95293.00;;;5.00
8227;BMP180;4154;48.810;9.012;2024-02-23T08:18:19;95297.00;;;5.00
8227;BMP180;4154;48.810;9.012;2024-02-23T08:20:45;95287.00;;;5.10
8227;BMP180;4154;48.810;9.012;2024-02-23T08:23:11;95290.00;;;5.10
8227;BMP180;4154;48.810;9.012;2024-02-23T08:25:37;95282.00;;;5.10
8227;BMP180;4154;48.810;9.012;2024-02-23T08:28:02;95274.00;;;5.10
8227;BMP180;4154;48.810;9.012;2024-02-23T08:30:28;95269.00;;;5.10
8227;BMP180;4154;48.810;9.012;2024-02-23T08:32:54;95269.00;;;5.10
8227;BMP180;4154;48.810;9.012;2024-02-23T08:35:20;95262.00;;;5.10
8227;BMP180;4154;48.810;9.012;2024-02-23T08:37:46;95252.00;;;5.00
8227;BMP180;4154;48.810;9.012;2024-02-23T08:40:11;95247.00;;;5.10
8227;BMP180;4154;48.810;9.012;2024-02-23T08:42:37;95238.00;;;5.00
8227;BMP180;4154;48.810;9.012;2024-02-23T08:45:04;95241.00;;;5.00
8227;BMP180;4154;48.810;9.012;2024-02-23T08:47:30;95237.00;;;5.10
8227;BMP180;4154;48.810;9.012;2024-02-23T08:49:59;95243.00;;;5.10
8227;BMP180;4154;48.810;9.012;2024-02-23T08:52:24;95244.00;;;5.10
8227;BMP180;4154;48.810;9.012;2024-02-23T08:54:51;95245.00;;;5.00
8227;BMP180;4154;48.810;9.012;2024-02-23T08:57:17;95248.00;;;5.10
8227;BMP180;4154;48.810;9.012;2024-02-23T08:59:45;95245.00;;;5.00
8227;BMP180;4154;48.810;9.012;2024-02-23T09:02:11;95247.00;;;5.00
8227;BMP180;4154;48.810;9.012;2024-02-23T09:04:37;95253.00;;;5.00
8227;BMP180;4154;48.810;9.012;2024-02-23T09:07:03;95248.00;;;5.00
8227;BMP180;4154;48.810;9.012;2024-02-23T09:09:29;95254.00;;;5.00
8227;BMP180;4154;48.810;9.012;2024-02-23T09:11:55;95255.00;;;5.00
8227;BMP180;4154;48.810;9.012;2024-02-23T09:14:21;95268.00;;;5.00
8227;BMP180;4154;48.810;9.012;2024-02-23T09:16:46;95273.00;;;5.00
8227;BMP180;4154;48.810;9.012;2024-02-23T09:19:16;95278.00;;;5.00
8227;BMP180;4154;48.810;9.012;2024-02-23T09:21:42;95286.00;;;5.10
8227;BMP180;4154;48.810;9.012;2024-02-23T09:24:07;95281.00;;;5.00
8227;BMP180;4154;48.810;9.012;2024-02-23T09:26:33;95273.00;;;5.00
8227;BMP180;4154;48.810;9.012;2024-02-23T09:28:59;95278.00;;;5.00
8227;BMP180;4154;48.810;9.012;2024-02-23T09:31:25;95273.00;;;5.00
8227;BMP180;4154;48.810;9.012;2024-02-23T09:33:54;95283.00;;;5.00
8227;BMP180;4154;48.810;9.012;2024-02-23T09:36:20;95274.00;;;5.00
8227;BMP180;4154;48.810;9.012;2024-02-23T09:38:47;95274.00;;;5.10
8227;BMP180;4154;48.810;9.012;2024-02-23T09:41:21;95270.00;;;5.10
8227;BMP180;4154;48.810;9.012;2024-02-23T09:43:48;95273.00;;;5.20
8227;BMP180;4154;48.810;9.012;2024-02-23T09:46:16;95270.00;;;5.30
8227;BMP180;4154;48.810;9.012;2024-02-23T09:48:44;95275.00;;;5.40
8227;BMP180;4154;48.810;9.012;2024-02-23T09:51:14;95270.00;;;5.50
8227;BMP180;4154;48.810;9.012;2024-02-23T09:53:41;95278.00;;;5.70
8227;BMP180;4154;48.810;9.012;2024-02-23T09:56:09;95288.00;;;5.80
8227;BMP180;4154;48.810;9.012;2024-02-23T09:58:36;95277.00;;;5.90
8227;BMP180;4154;48.810;9.012;2024-02-23T10:01:03;95275.00;;;6.00
8227;BMP180;4154;48.810;9.012;2024-02-23T10:03:31;95285.00;;;6.10
8227;BMP180;4154;48.810;9.012;2024-02-23T10:05:57;95281.00;;;6.10
8227;BMP180;4154;48.810;9.012;2024-02-23T10:08:23;95279.00;;;6.10
8227;BMP180;4154;48.810;9.012;2024-02-23T10:10:49;95274.00;;;6.20
8227;BMP180;4154;48.810;9.012;2024-02-23T10:13:19;95270.00;;;6.30
8227;BMP180;4154;48.810;9.012;2024-02-23T10:15:52;95273.00;;;6.30
8227;BMP180;4154;48.810;9.012;2024-02-23T10:18:19;95281.00;;;6.40
8227;BMP180;4154;48.810;9.012;2024-02-23T10:20:46;95283.00;;;6.40
8227;BMP180;4154;48.810;9.012;2024-02-23T10:23:11;95284.00;;;6.40
8227;BMP180;4154;48.810;9.012;2024-02-23T10:25:37;95294.00;;;6.40
8227;BMP180;4154;48.810;9.012;2024-02-23T10:28:05;95301.00;;;6.40
8227;BMP180;4154;48.810;9.012;2024-02-23T10:30:31;95293.00;;;6.50
8227;BMP180;4154;48.810;9.012;2024-02-23T10:32:58;95298.00;;;6.50
8227;BMP180;4154;48.810;9.012;2024-02-23T10:35:25;95287.00;;;6.60
8227;BMP180;4154;48.810;9.012;2024-02-23T10:37:53;95294.00;;;6.80
8227;BMP180;4154;48.810;9.012;2024-02-23T10:40:21;95302.00;;;7.00
8227;BMP180;4154;48.810;9.012;2024-02-23T10:42:50;95293.00;;;7.00
8227;BMP180;4154;48.810;9.012;2024-02-23T10:45:21;95292.00;;;7.00
8227;BMP180;4154;48.810;9.012;2024-02-23T10:47:51;95308.00;;;7.20
8227;BMP180;4154;48.810;9.012;2024-02-23T10:50:17;95294.00;;;7.20
8227;BMP180;4154;48.810;9.012;2024-02-23T10:52:45;95292.00;;;7.10
8227;BMP180;4154;48.810;9.012;2024-02-23T10:55:14;95289.00;;;7.20
8227;BMP180;4154;48.810;9.012;2024-02-23T10:57:39;95281.00;;;7.20
8227;BMP180;4154;48.810;9.012;2024-02-23T11:00:07;95288.00;;;7.20
8227;BMP180;4154;48.810;9.012;2024-02-23T11:02:51;95283.00;;;7.30
8227;BMP180;4154;48.810;9.012;2024-02-23T11:05:19;95284.00;;;7.30
8227;BMP180;4154;48.810;9.012;2024-02-23T11:07:48;95283.00;;;7.40
8227;BMP180;4154;48.810;9.012;2024-02-23T11:10:17;95270.00;;;7.40
8227;BMP180;4154;48.810;9.012;2024-02-23T11:12:44;95270.00;;;7.40
8227;BMP180;4154;48.810;9.012;2024-02-23T11:15:30;95276.00;;;7.50
8227;BMP180;4154;48.810;9.012;2024-02-23T11:17:56;95271.00;;;7.60
8227;BMP180;4154;48.810;9.012;2024-02-23T11:20:22;95270.00;;;7.70
8227;BMP180;4154;48.810;9.012;2024-02-23T11:22:52;95268.00;;;7.70
8227;BMP180;4154;48.810;9.012;2024-02-23T11:25:26;95270.00;;;7.80
8227;BMP180;4154;48.810;9.012;2024-02-23T11:27:52;95269.00;;;7.70
8227;BMP180;4154;48.810;9.012;2024-02-23T11:30:18;95278.00;;;7.80
8227;BMP180;4154;48.810;9.012;2024-02-23T11:32:46;95266.00;;;7.80
8227;BMP180;4154;48.810;9.012;2024-02-23T11:35:19;95264.00;;;7.90
8227;BMP180;4154;48.810;9.012;2024-02-23T11:37:54;95261.00;;;7.90
8227;BMP180;4154;48.810;9.012;2024-02-23T11:40:25;95260.00;;;7.90
8227;BMP180;4154;48.810;9.012;2024-02-23T11:42:51;95259.00;;;7.80
8227;BMP180;4154;48.810;9.012;2024-02-23T11:45:17;95258.00;;;7.70
8227;BMP180;4154;48.810;9.012;2024-02-23T11:47:43;95264.00;;;7.70
8227;BMP180;4154;48.810;9.012;2024-02-23T11:50:09;95255.00;;;7.70
8227;BMP180;4154;48.810;9.012;2024-02-23T11:52:38;95261.00;;;7.70
8227;BMP180;4154;48.810;9.012;2024-02-23T11:55:05;95254.00;;;7.60
8227;BMP180;4154;48.810;9.012;2024-02-23T11:57:33;95254.00;;;7.70
8227;BMP180;4154;48.810;9.012;2024-02-23T12:00:01;95257.00;;;7.70
8227;BMP180;4154;48.810;9.012;2024-02-23T12:02:27;95245.00;;;7.80
8227;BMP180;4154;48.810;9.012;2024-02-23T12:04:52;95250.00;;;7.80
8227;BMP180;4154;48.810;9.012;2024-02-23T12:07:18;95250.00;;;7.80
8227;BMP180;4154;48.810;9.012;2024-02-23T12:09:45;95243.00;;;7.90
8227;BMP180;4154;48.810;9.012;2024-02-23T12:12:11;95238.00;;;8.10
8227;BMP180;4154;48.810;9.012;2024-02-23T12:14:36;95243.00;;;8.20
8227;BMP180;4154;48.810;9.012;2024-02-23T12:17:02;95245.00;;;8.30
8227;BMP180;4154;48.810;9.012;2024-02-23T12:19:30;95237.00;;;8.50
8227;BMP180;4154;48.810;9.012;2024-02-23T12:22:00;95238.00;;;8.50
8227;BMP180;4154;48.810;9.012;2024-02-23T12:24:26;95242.00;;;8.60
8227;BMP180;4154;48.810;9.012;2024-02-23T12:26:55;95239.00;;;8.70
8227;BMP180;4154;48.810;9.012;2024-02-23T12:29:21;95226.00;;;8.60
8227;BMP180;4154;48.810;9.012;2024-02-23T12:31:47;95232.00;;;8.60
8227;BMP180;4154;48.810;9.012;2024-02-23T12:34:13;95238.00;;;8.60
8227;BMP180;4154;48.810;9.012;2024-02-23T12:36:39;95231.00;;;8.70
8227;BMP180;4154;48.810;9.012;2024-02-23T12:39:05;95236.00;;;8.60
8227;BMP180;4154;48.810;9.012;2024-02-23T12:41:31;95241.00;;;8.60
8227;BMP180;4154;48.810;9.012;2024-02-23T12:43:57;95242.00;;;8.50
8227;BMP180;4154;48.810;9.012;2024-02-23T12:46:23;95242.00;;;8.50
8227;BMP180;4154;48.810;9.012;2024-02-23T12:48:50;95233.00;;;8.40
8227;BMP180;4154;48.810;9.012;2024-02-23T12:51:16;95230.00;;;8.30
8227;BMP180;4154;48.810;9.012;2024-02-23T12:53:43;95247.00;;;8.30
8227;BMP180;4154;48.810;9.012;2024-02-23T12:56:13;95236.00;;;8.30
8227;BMP180;4154;48.810;9.012;2024-02-23T12:58:41;95232.00;;;8.30
8227;BMP180;4154;48.810;9.012;2024-02-23T13:01:08;95228.00;;;8.20
8227;BMP180;4154;48.810;9.012;2024-02-23T13:03:35;95231.00;;;8.20
8227;BMP180;4154;48.810;9.012;2024-02-23T13:06:02;95235.00;;;8.30
8227;BMP180;4154;48.810;9.012;2024-02-23T13:08:28;95230.00;;;8.30
8227;BMP180;4154;48.810;9.012;2024-02-23T13:10:55;95233.00;;;8.40
8227;BMP180;4154;48.810;9.012;2024-02-23T13:13:22;95250.00;;;8.40
8227;BMP180;4154;48.810;9.012;2024-02-23T13:15:50;95244.00;;;8.40
8227;BMP180;4154;48.810;9.012;2024-02-23T13:18:15;95250.00;;;8.40
8227;BMP180;4154;48.810;9.012;2024-02-23T13:20:42;95238.00;;;8.50
8227;BMP180;4154;48.810;9.012;2024-02-23T13:23:12;95242.00;;;8.50
8227;BMP180;4154;48.810;9.012;2024-02-23T13:25:39;95237.00;;;8.50
8227;BMP180;4154;48.810;9.012;2024-02-23T13:28:06;95236.00;;;8.50
8227;BMP180;4154;48.810;9.012;2024-02-23T13:30:33;95244.00;;;8.50
8227;BMP180;4154;48.810;9.012;2024-02-23T13:32:59;95231.00;;;8.50
8227;BMP180;4154;48.810;9.012;2024-02-23T13:35:25;95234.00;;;8.60
8227;BMP180;4154;48.810;9.012;2024-02-23T13:37:52;95243.00;;;8.60
8227;BMP180;4154;48.810;9.012;2024-02-23T13:40:17;95232.00;;;8.50
8227;BMP180;4154;48.810;9.012;2024-02-23T13:42:43;95232.00;;;8.50
8227;BMP180;4154;48.810;9.012;2024-02-23T13:45:11;95222.00;;;8.50
8227;BMP180;4154;48.810;9.012;2024-02-23T13:47:40;95225.00;;;8.50
8227;BMP180;4154;48.810;9.012;2024-02-23T13:50:06;95220.00;;;8.50
8227;BMP180;4154;48.810;9.012;2024-02-23T13:52:32;95213.00;;;8.50
8227;BMP180;4154;48.810;9.012;2024-02-23T13:54:58;95209.00;;;8.50
8227;BMP180;4154;48.810;9.012;2024-02-23T13:57:24;95203.00;;;8.50
8227;BMP180;4154;48.810;9.012;2024-02-23T13:59:49;95194.00;;;8.50
8227;BMP180;4154;48.810;9.012;2024-02-23T14:02:16;95188.00;;;8.60
8227;BMP180;4154;48.810;9.012;2024-02-23T14:04:41;95184.00;;;8.80
8227;BMP180;4154;48.810;9.012;2024-02-23T14:07:07;95174.00;;;8.70
8227;BMP180;4154;48.810;9.012;2024-02-23T14:09:33;95177.00;;;8.70
8227;BMP180;4154;48.810;9.012;2024-02-23T14:11:59;95169.00;;;8.70
8227;BMP180;4154;48.810;9.012;2024-02-23T14:14:25;95163.00;;;8.70
8227;BMP180;4154;48.810;9.012;2024-02-23T14:16:50;95170.00;;;8.60
8227;BMP180;4154;48.810;9.012;2024-02-23T14:19:17;95166.00;;;8.70
8227;BMP180;4154;48.810;9.012;2024-02-23T14:21:44;95171.00;;;8.80
8227;BMP180;4154;48.810;9.012;2024-02-23T14:24:10;95171.00;;;8.80
8227;BMP180;4154;48.810;9.012;2024-02-23T14:26:35;95166.00;;;8.90
8227;BMP180;4154;48.810;9.012;2024-02-23T14:29:01;95168.00;;;9.00
8227;BMP180;4154;48.810;9.012;2024-02-23T14:31:27;95177.00;;;9.00
8227;BMP180;4154;48.810;9.012;2024-02-23T14:33:53;95176.00;;;9.00
8227;BMP180;4154;48.810;9.012;2024-02-23T14:36:19;95167.00;;;9.00
8227;BMP180;4154;48.810;9.012;2024-02-23T14:38:44;95170.00;;;9.00
8227;BMP180;4154;48.810;9.012;2024-02-23T14:41:10;95183.00;;;9.10
8227;BMP180;4154;48.810;9.012;2024-02-23T14:43:37;95191.00;;;9.10